Roodhouse, Illinois
Current Conditions -  °F | °C
As of 2:55 AM on Saturday 22 Nov 2014 (Local Time) from KIJX Reporting Station
Overcast Overcast  
Wind Chill: 36°   Ceiling: 3200
Heat Index: 42°   Visibility: 7mi
Dew Point: 38°   Wind: 9mph
Humidity: 85%   Direction: 180°S
Pressure: 30.12"   Gusts: NA
Location:  39.48°N, 90.37°W
Report Text: KIJX 220855Z AUTO 18008KT 7SM OVC032 06/03 A3012 RMK AO2 T00550032
Loading
Personal Weather Stations






























Interactive Weather Map New forecast layout! Learn more

10-Day Weather Forecast

Advertisements
Track Severe Weather on mobile